createdAt,value
2022-08-16T00:00:40.964Z,20.60
2022-08-16T00:01:41.332Z,20.62
2022-08-16T00:02:41.648Z,20.62
2022-08-16T00:03:42.007Z,20.60
2022-08-16T00:04:42.373Z,20.62
2022-08-16T00:05:48.473Z,20.60
2022-08-16T00:06:44.027Z,20.62
2022-08-16T00:07:43.524Z,20.59
2022-08-16T00:08:45.905Z,20.60
2022-08-16T00:09:44.246Z,20.60
2022-08-16T00:10:44.657Z,20.60
2022-08-16T00:11:44.967Z,20.58
2022-08-16T00:12:45.328Z,20.58
2022-08-16T00:13:53.618Z,20.56
2022-08-16T00:14:46.094Z,20.56
2022-08-16T00:15:51.985Z,20.55
2022-08-16T00:17:01.608Z,20.55
2022-08-16T00:17:56.167Z,20.52
2022-08-16T00:18:47.538Z,20.50
2022-08-16T00:19:49.099Z,20.50
2022-08-16T00:20:48.232Z,20.48
2022-08-16T00:21:53.251Z,20.50
2022-08-16T00:22:49.249Z,20.47
2022-08-16T00:23:49.309Z,20.48
2022-08-16T00:24:51.470Z,20.47
2022-08-16T00:26:35.576Z,20.48
2022-08-16T00:26:50.552Z,20.48
2022-08-16T00:27:50.765Z,20.47
2022-08-16T00:28:54.717Z,20.47
2022-08-16T00:30:00.851Z,20.47
2022-08-16T00:30:51.898Z,20.48
2022-08-16T00:32:01.187Z,20.48
2022-08-16T00:32:52.758Z,20.48
2022-08-16T00:33:52.955Z,20.48
2022-08-16T00:34:54.346Z,20.48
2022-08-16T00:35:53.734Z,20.47
2022-08-16T00:36:55.689Z,20.47
2022-08-16T00:37:57.095Z,20.48
2022-08-16T00:38:54.805Z,20.48
2022-08-16T00:39:57.460Z,20.47
2022-08-16T00:40:55.649Z,20.44
2022-08-16T00:41:55.900Z,20.44
2022-08-16T00:42:56.248Z,20.44
2022-08-16T00:43:56.605Z,20.44
2022-08-16T00:44:56.930Z,20.43
2022-08-16T00:46:00.196Z,20.44
2022-08-16T00:47:06.181Z,20.43
2022-08-16T00:47:58.040Z,20.40
2022-08-16T00:48:58.439Z,20.40
2022-08-16T00:49:58.768Z,20.39
2022-08-16T00:50:59.159Z,20.39
2022-08-16T00:52:00.166Z,20.36
2022-08-16T00:52:59.974Z,20.34
2022-08-16T00:54:00.246Z,20.29
2022-08-16T00:55:00.659Z,20.28
2022-08-16T00:56:00.989Z,20.28
2022-08-16T00:57:01.344Z,20.26
2022-08-16T00:58:01.696Z,20.26
2022-08-16T00:59:02.083Z,20.26
2022-08-16T01:00:02.438Z,20.25
2022-08-16T01:01:02.843Z,20.25
2022-08-16T01:02:30.860Z,20.25
2022-08-16T01:03:03.603Z,20.25
2022-08-16T01:04:05.324Z,20.25
2022-08-16T01:05:10.476Z,20.25
2022-08-16T01:06:39.897Z,20.24
2022-08-16T01:07:04.955Z,20.24
2022-08-16T01:08:35.418Z,20.24
2022-08-16T01:09:05.677Z,20.24
2022-08-16T01:10:16.479Z,20.24
2022-08-16T01:11:06.610Z,20.25
2022-08-16T01:12:08.819Z,20.25
2022-08-16T01:13:07.132Z,20.24
2022-08-16T01:14:07.511Z,20.24
2022-08-16T01:15:07.867Z,20.24
2022-08-16T01:16:10.351Z,20.21
2022-08-16T01:17:08.616Z,20.18
2022-08-16T01:18:08.946Z,20.19
2022-08-16T01:19:09.331Z,20.18
2022-08-16T01:20:23.913Z,20.16
2022-08-16T01:21:10.045Z,20.18
2022-08-16T01:22:47.568Z,20.19
2022-08-16T01:23:10.749Z,20.18
2022-08-16T01:24:52.614Z,20.16
2022-08-16T01:25:11.513Z,20.13
2022-08-16T01:26:34.322Z,20.09
2022-08-16T01:27:12.184Z,20.07
2022-08-16T01:28:19.704Z,20.03
2022-08-16T01:29:12.900Z,20.02
2022-08-16T01:30:19.685Z,20.00
2022-08-16T01:31:13.638Z,19.96
2022-08-16T01:32:13.955Z,19.92
2022-08-16T01:33:15.646Z,19.88
2022-08-16T01:34:23.230Z,19.86
2022-08-16T01:35:17.600Z,19.82
2022-08-16T01:36:15.479Z,19.79
2022-08-16T01:37:16.215Z,19.76
2022-08-16T01:38:19.506Z,19.71
2022-08-16T01:39:16.499Z,19.69
2022-08-16T01:40:16.884Z,19.67
2022-08-16T01:41:19.136Z,19.66
2022-08-16T01:42:17.891Z,19.62
2022-08-16T01:43:17.993Z,19.62
2022-08-16T01:44:18.610Z,19.58
2022-08-16T01:45:19.783Z,19.55
2022-08-16T01:46:37.521Z,19.55
2022-08-16T01:47:19.433Z,19.55
2022-08-16T01:48:20.663Z,19.58
2022-08-16T01:49:20.224Z,19.56
2022-08-16T01:50:42.109Z,19.58
2022-08-16T01:51:20.903Z,19.56
2022-08-16T01:52:29.437Z,19.56
2022-08-16T01:53:21.626Z,19.56
2022-08-16T01:54:30.480Z,19.56
2022-08-16T01:55:22.352Z,19.54
2022-08-16T01:56:24.450Z,19.52
2022-08-16T01:57:23.135Z,19.51
2022-08-16T01:58:23.447Z,19.51
2022-08-16T01:59:23.947Z,19.48
2022-08-16T02:00:29.411Z,19.47
2022-08-16T02:01:26.227Z,19.45
2022-08-16T02:02:27.413Z,19.45
2022-08-16T02:03:26.630Z,19.44
2022-08-16T02:04:40.020Z,19.44
2022-08-16T02:05:30.490Z,19.44
2022-08-16T02:06:34.363Z,19.40
2022-08-16T02:07:26.737Z,19.37
2022-08-16T02:08:33.697Z,19.37
2022-08-16T02:09:27.473Z,19.39
2022-08-16T02:10:27.838Z,19.40
2022-08-16T02:11:28.237Z,19.41
2022-08-16T02:12:50.155Z,19.41
2022-08-16T02:13:32.755Z,19.40
2022-08-16T02:14:29.276Z,19.41
2022-08-16T02:15:29.711Z,19.39
2022-08-16T02:16:30.891Z,19.39
2022-08-16T02:17:30.374Z,19.37
2022-08-16T02:18:30.731Z,19.36
2022-08-16T02:19:59.211Z,19.30
2022-08-16T02:20:31.457Z,19.29
2022-08-16T02:21:31.875Z,19.27
2022-08-16T02:22:35.930Z,19.22
2022-08-16T02:23:32.550Z,19.16
2022-08-16T02:24:41.220Z,19.14
2022-08-16T02:25:50.811Z,19.09
2022-08-16T02:26:34.384Z,19.07
2022-08-16T02:27:34.039Z,19.02
2022-08-16T02:28:34.374Z,19.04
2022-08-16T02:29:34.747Z,19.08
2022-08-16T02:30:37.172Z,19.07
2022-08-16T02:32:02.850Z,19.09
2022-08-16T02:32:49.788Z,19.12
2022-08-16T02:33:44.064Z,19.14
2022-08-16T02:34:40.807Z,19.14
2022-08-16T02:35:54.049Z,19.15
2022-08-16T02:36:47.353Z,19.15
2022-08-16T02:37:44.752Z,19.15
2022-08-16T02:38:38.012Z,19.14
2022-08-16T02:39:38.414Z,19.14
2022-08-16T02:40:38.748Z,19.12
2022-08-16T02:41:39.552Z,19.11
2022-08-16T02:42:39.467Z,19.11
2022-08-16T02:43:39.822Z,19.12
2022-08-16T02:44:42.378Z,19.12
2022-08-16T02:45:40.550Z,19.12
2022-08-16T02:46:41.330Z,19.12
2022-08-16T02:48:00.504Z,19.11
2022-08-16T02:48:49.370Z,19.12
2022-08-16T02:49:58.994Z,19.15
2022-08-16T02:51:05.854Z,19.15
2022-08-16T02:51:42.758Z,19.15
2022-08-16T02:52:43.761Z,19.15
2022-08-16T02:53:43.740Z,19.15
2022-08-16T02:54:43.993Z,19.12
2022-08-16T02:55:44.176Z,19.14
2022-08-16T02:56:47.951Z,19.14
2022-08-16T02:57:54.051Z,19.11
2022-08-16T02:58:45.289Z,19.11
2022-08-16T02:59:45.602Z,19.09
2022-08-16T03:00:50.021Z,19.08
2022-08-16T03:01:46.358Z,19.07
2022-08-16T03:02:46.852Z,19.04
2022-08-16T03:04:39.907Z,19.04
2022-08-16T03:04:55.874Z,19.00
2022-08-16T03:05:50.025Z,18.99
2022-08-16T03:06:48.129Z,18.99
2022-08-16T03:07:50.600Z,18.98
2022-08-16T03:08:50.677Z,18.96
2022-08-16T03:09:49.197Z,18.92
2022-08-16T03:10:49.587Z,18.89
2022-08-16T03:11:49.956Z,18.88
2022-08-16T03:12:55.722Z,18.89
2022-08-16T03:13:51.354Z,18.92
2022-08-16T03:14:51.021Z,18.93
2022-08-16T03:15:51.414Z,18.92
2022-08-16T03:16:59.159Z,18.93
2022-08-16T03:17:53.518Z,18.93
2022-08-16T03:18:52.509Z,18.92
2022-08-16T03:19:59.447Z,18.92
2022-08-16T03:20:55.690Z,18.92
2022-08-16T03:21:53.637Z,18.89
2022-08-16T03:22:53.998Z,18.84
2022-08-16T03:23:54.390Z,18.84
2022-08-16T03:24:54.685Z,18.83
2022-08-16T03:25:54.758Z,18.81
2022-08-16T03:26:58.205Z,18.81
2022-08-16T03:27:55.241Z,18.81
2022-08-16T03:28:55.395Z,18.81
2022-08-16T03:29:55.611Z,18.80
2022-08-16T03:30:55.834Z,18.81
2022-08-16T03:31:56.084Z,18.81
2022-08-16T03:32:56.181Z,18.81
2022-08-16T03:33:56.352Z,18.81
2022-08-16T03:34:56.527Z,18.81
2022-08-16T03:35:57.170Z,18.81
2022-08-16T03:36:56.919Z,18.81
2022-08-16T03:38:03.259Z,18.80
2022-08-16T03:38:57.463Z,18.81
2022-08-16T03:40:02.918Z,18.81
2022-08-16T03:40:57.981Z,18.83
2022-08-16T03:41:59.684Z,18.84
2022-08-16T03:43:03.017Z,18.84
2022-08-16T03:43:58.712Z,18.84
2022-08-16T03:45:03.820Z,18.84
2022-08-16T03:45:59.138Z,18.88
2022-08-16T03:46:59.229Z,18.89
2022-08-16T03:47:59.955Z,18.90
2022-08-16T03:48:59.779Z,18.89
2022-08-16T03:50:00.101Z,18.88
2022-08-16T03:51:00.599Z,18.90
2022-08-16T03:52:00.586Z,18.90
2022-08-16T03:53:05.416Z,18.92
2022-08-16T03:54:01.689Z,18.93
2022-08-16T03:55:01.198Z,18.96
2022-08-16T03:56:01.363Z,18.98
2022-08-16T03:57:01.702Z,18.99
2022-08-16T03:58:01.965Z,19.00
2022-08-16T03:59:02.285Z,19.02
2022-08-16T04:00:05.722Z,18.99
2022-08-16T04:01:02.912Z,19.00
2022-08-16T04:02:12.615Z,18.99
2022-08-16T04:03:03.318Z,18.98
2022-08-16T04:04:03.606Z,18.98
2022-08-16T04:05:03.969Z,18.96
2022-08-16T04:06:03.973Z,18.95
2022-08-16T04:07:04.219Z,18.95
2022-08-16T04:08:23.099Z,18.93
2022-08-16T04:09:04.651Z,18.92
2022-08-16T04:10:36.002Z,18.92
2022-08-16T04:11:04.974Z,18.92
2022-08-16T04:12:10.914Z,18.90
2022-08-16T04:13:05.627Z,18.89
2022-08-16T04:14:08.548Z,18.89
2022-08-16T04:15:07.236Z,18.88
2022-08-16T04:16:06.598Z,18.88
2022-08-16T04:17:06.186Z,18.88
2022-08-16T04:18:06.381Z,18.88
2022-08-16T04:19:06.531Z,18.88
2022-08-16T04:20:06.661Z,18.88
2022-08-16T04:21:06.966Z,18.88
2022-08-16T04:22:08.811Z,18.89
2022-08-16T04:23:07.341Z,18.88
2022-08-16T04:24:08.079Z,18.88
2022-08-16T04:25:07.685Z,18.88
2022-08-16T04:26:07.877Z,18.90
2022-08-16T04:27:09.057Z,18.90
2022-08-16T04:28:52.044Z,18.92
2022-08-16T04:29:16.432Z,18.92
2022-08-16T04:30:10.958Z,18.90
2022-08-16T04:31:10.583Z,18.90
2022-08-16T04:32:09.054Z,18.92
2022-08-16T04:33:09.256Z,18.92
2022-08-16T04:34:09.370Z,18.90
2022-08-16T04:35:15.409Z,18.90
2022-08-16T04:36:09.737Z,18.92
2022-08-16T04:37:09.951Z,18.92
2022-08-16T04:38:11.030Z,18.93
2022-08-16T04:39:10.237Z,18.93
2022-08-16T04:40:10.484Z,18.95
2022-08-16T04:41:10.596Z,18.95
2022-08-16T04:42:11.267Z,18.96
2022-08-16T04:43:10.962Z,18.96
2022-08-16T04:44:32.577Z,18.99
2022-08-16T04:45:11.362Z,18.99
2022-08-16T04:46:19.855Z,19.02
2022-08-16T04:47:21.473Z,19.00
2022-08-16T04:48:11.973Z,19.02
2022-08-16T04:49:12.178Z,19.02
2022-08-16T04:50:12.323Z,19.02
2022-08-16T04:51:12.889Z,19.04
2022-08-16T04:52:44.137Z,19.02
2022-08-16T04:53:12.883Z,19.04
2022-08-16T04:54:13.722Z,19.04
2022-08-16T04:55:13.248Z,19.04
2022-08-16T04:56:13.425Z,19.04
2022-08-16T04:57:13.645Z,19.07
2022-08-16T04:58:46.158Z,19.07
2022-08-16T04:59:13.986Z,19.07
2022-08-16T05:00:31.969Z,19.08
2022-08-16T05:01:15.160Z,19.07
2022-08-16T05:02:41.878Z,19.08
2022-08-16T05:03:14.794Z,19.09
2022-08-16T05:04:19.626Z,19.11
2022-08-16T05:05:17.280Z,19.11
2022-08-16T05:06:15.296Z,19.15
2022-08-16T05:07:20.480Z,19.14
2022-08-16T05:08:29.044Z,19.16
2022-08-16T05:09:16.453Z,19.15
2022-08-16T05:10:19.799Z,19.19
2022-08-16T05:11:16.147Z,19.21
2022-08-16T05:12:18.267Z,19.24
2022-08-16T05:13:16.546Z,19.22
2022-08-16T05:14:20.053Z,19.27
2022-08-16T05:15:16.937Z,19.30
2022-08-16T05:16:21.395Z,19.34
2022-08-16T05:17:17.306Z,19.39
2022-08-16T05:18:19.892Z,19.41
2022-08-16T05:19:17.673Z,19.47
2022-08-16T05:20:39.494Z,19.52
2022-08-16T05:21:18.053Z,19.54
2022-08-16T05:22:18.535Z,19.58
2022-08-16T05:23:18.396Z,19.63
2022-08-16T05:24:24.696Z,19.69
2022-08-16T05:25:18.748Z,19.70
2022-08-16T05:26:19.909Z,19.74
2022-08-16T05:27:19.210Z,19.77
2022-08-16T05:28:19.343Z,19.73
2022-08-16T05:29:20.630Z,19.82
2022-08-16T05:30:35.652Z,19.84
2022-08-16T05:31:19.896Z,19.85
2022-08-16T05:32:34.169Z,19.89
2022-08-16T05:33:20.278Z,19.91
2022-08-16T05:34:20.478Z,19.94
2022-08-16T05:35:20.688Z,19.99
2022-08-16T05:36:21.067Z,20.02
2022-08-16T05:37:21.086Z,20.06
2022-08-16T05:38:31.044Z,20.09
2022-08-16T05:39:22.486Z,20.13
2022-08-16T05:40:21.658Z,20.19
2022-08-16T05:41:21.868Z,20.22
2022-08-16T05:42:22.013Z,20.28
2022-08-16T05:43:22.218Z,20.31
2022-08-16T05:44:24.848Z,20.31
2022-08-16T05:45:23.293Z,20.34
2022-08-16T05:46:30.013Z,20.37
2022-08-16T05:47:23.014Z,20.40
2022-08-16T05:48:26.988Z,20.41
2022-08-16T05:49:23.486Z,20.43
2022-08-16T05:50:28.235Z,20.60
2022-08-16T05:51:39.030Z,20.67
2022-08-16T05:52:23.934Z,20.74
2022-08-16T05:53:24.317Z,20.75
2022-08-16T05:54:25.701Z,20.70
2022-08-16T05:55:24.503Z,20.62
2022-08-16T05:56:24.666Z,20.62
2022-08-16T05:57:24.906Z,20.84
2022-08-16T05:58:33.112Z,21.20
2022-08-16T05:59:26.944Z,21.42
2022-08-16T06:00:25.461Z,21.17
2022-08-16T06:01:25.719Z,21.15
2022-08-16T06:02:29.123Z,21.15
2022-08-16T06:03:26.061Z,21.17
2022-08-16T06:04:36.119Z,21.51
2022-08-16T06:05:26.445Z,21.96
2022-08-16T06:06:27.909Z,22.39
2022-08-16T06:07:26.978Z,22.65
2022-08-16T06:08:31.699Z,23.00
2022-08-16T06:09:42.996Z,22.73
2022-08-16T06:10:33.254Z,22.51
2022-08-16T06:11:28.559Z,22.81
2022-08-16T06:12:28.670Z,23.02
2022-08-16T06:13:28.035Z,22.88
2022-08-16T06:14:28.126Z,22.48
2022-08-16T06:15:28.313Z,22.41
2022-08-16T06:16:28.478Z,22.50
2022-08-16T06:17:41.162Z,22.10
2022-08-16T06:18:28.911Z,22.10
2022-08-16T06:19:29.073Z,22.10
2022-08-16T06:20:34.902Z,22.17
2022-08-16T06:21:29.454Z,22.32
2022-08-16T06:22:39.371Z,22.33
2022-08-16T06:23:32.295Z,22.36
2022-08-16T06:24:52.657Z,22.53
2022-08-16T06:25:36.284Z,22.75
2022-08-16T06:26:34.671Z,22.85
2022-08-16T06:27:39.424Z,22.91
2022-08-16T06:28:36.500Z,22.94
2022-08-16T06:29:30.972Z,22.98
2022-08-16T06:30:31.148Z,22.99
2022-08-16T06:31:31.371Z,22.94
2022-08-16T06:32:36.563Z,22.91
2022-08-16T06:33:41.191Z,22.81
2022-08-16T06:34:56.611Z,22.83
2022-08-16T06:35:40.279Z,22.85
2022-08-16T06:36:32.486Z,22.91
2022-08-16T06:37:36.932Z,22.78
2022-08-16T06:38:34.469Z,22.68
2022-08-16T06:39:32.879Z,22.69
2022-08-16T06:40:33.268Z,22.78
2022-08-16T06:41:39.638Z,22.75
2022-08-16T06:42:47.073Z,22.80
2022-08-16T06:43:33.638Z,22.78
2022-08-16T06:44:33.843Z,22.83
2022-08-16T06:45:33.983Z,22.87
2022-08-16T06:46:34.160Z,22.72
2022-08-16T06:47:52.542Z,22.59
2022-08-16T06:48:34.554Z,22.53
2022-08-16T06:49:34.702Z,22.55
2022-08-16T06:50:34.889Z,22.55
2022-08-16T06:51:46.263Z,22.57
2022-08-16T06:53:00.506Z,22.60
2022-08-16T06:53:36.269Z,22.62
2022-08-16T06:54:35.663Z,22.69
2022-08-16T06:55:38.188Z,22.68
2022-08-16T06:56:36.040Z,22.70
2022-08-16T06:57:39.662Z,22.73
2022-08-16T06:58:36.988Z,22.80
2022-08-16T06:59:48.487Z,22.75
2022-08-16T07:00:37.550Z,22.87
2022-08-16T07:01:44.748Z,22.91
2022-08-16T07:02:37.208Z,23.02
2022-08-16T07:03:55.100Z,23.10
2022-08-16T07:04:37.541Z,23.17
2022-08-16T07:05:41.898Z,23.21
2022-08-16T07:06:37.908Z,23.31
2022-08-16T07:07:38.098Z,23.44
2022-08-16T07:08:38.297Z,23.51
2022-08-16T07:09:38.465Z,23.46
2022-08-16T07:10:38.689Z,23.51
2022-08-16T07:11:48.254Z,23.47
2022-08-16T07:13:03.299Z,23.46
2022-08-16T07:14:00.345Z,23.47
2022-08-16T07:14:39.428Z,23.59
2022-08-16T07:15:50.104Z,23.59
2022-08-16T07:16:39.809Z,23.55
2022-08-16T07:17:40.022Z,23.55
2022-08-16T07:18:40.247Z,23.47
2022-08-16T07:20:02.873Z,23.46
2022-08-16T07:20:47.324Z,23.56
2022-08-16T07:21:46.565Z,23.54
2022-08-16T07:22:41.006Z,23.68
2022-08-16T07:23:41.187Z,23.87
2022-08-16T07:24:45.962Z,23.91
2022-08-16T07:25:41.554Z,24.01
2022-08-16T07:26:41.734Z,24.11
2022-08-16T07:27:41.945Z,24.30
2022-08-16T07:28:42.128Z,24.35
2022-08-16T07:29:42.303Z,24.63
2022-08-16T07:30:46.321Z,24.96
2022-08-16T07:31:42.689Z,24.85
2022-08-16T07:32:42.898Z,24.74
2022-08-16T07:33:52.028Z,24.88
2022-08-16T07:34:48.594Z,25.06
2022-08-16T07:35:44.246Z,25.17
2022-08-16T07:36:45.123Z,25.17
2022-08-16T07:37:43.865Z,25.23
2022-08-16T07:38:44.032Z,25.14
2022-08-16T07:39:44.273Z,24.91
2022-08-16T07:40:59.398Z,24.95
2022-08-16T07:41:44.619Z,25.08
2022-08-16T07:42:45.507Z,24.98
2022-08-16T07:43:44.996Z,24.77
2022-08-16T07:44:49.337Z,24.81
2022-08-16T07:45:49.451Z,24.81
2022-08-16T07:46:45.601Z,25.07
2022-08-16T07:47:45.829Z,24.95
2022-08-16T07:48:47.569Z,24.92
2022-08-16T07:49:53.108Z,25.11
2022-08-16T07:50:55.712Z,25.32
2022-08-16T07:51:46.578Z,25.17
2022-08-16T07:52:46.758Z,25.11
2022-08-16T07:53:46.934Z,25.26
2022-08-16T07:54:48.967Z,25.44
2022-08-16T07:55:48.387Z,25.60
2022-08-16T07:56:47.545Z,25.65
2022-08-16T07:58:01.090Z,25.58
2022-08-16T07:58:47.950Z,25.59
2022-08-16T07:59:48.164Z,25.53
2022-08-16T08:00:48.397Z,25.53
2022-08-16T08:01:48.518Z,25.54
2022-08-16T08:02:48.857Z,25.28
2022-08-16T08:03:49.511Z,25.26
2022-08-16T08:04:49.165Z,25.32
2022-08-16T08:05:49.331Z,25.41
2022-08-16T08:06:51.143Z,25.25
2022-08-16T08:07:49.722Z,24.96
2022-08-16T08:08:52.529Z,24.84
2022-08-16T08:09:50.228Z,25.01
2022-08-16T08:10:50.307Z,25.25
2022-08-16T08:12:01.254Z,25.22
2022-08-16T08:12:51.100Z,25.17
2022-08-16T08:13:50.975Z,25.10
2022-08-16T08:14:51.110Z,25.06
2022-08-16T08:15:52.563Z,25.25
2022-08-16T08:16:51.451Z,25.17
2022-08-16T08:17:51.663Z,25.22
2022-08-16T08:19:00.473Z,25.31
2022-08-16T08:19:53.264Z,25.18
2022-08-16T08:20:59.529Z,25.18
2022-08-16T08:22:01.199Z,25.29
2022-08-16T08:22:52.600Z,25.33
2022-08-16T08:23:52.753Z,25.28
2022-08-16T08:24:53.247Z,25.18
2022-08-16T08:25:55.342Z,25.03
2022-08-16T08:26:53.340Z,25.26
2022-08-16T08:27:57.640Z,25.46
2022-08-16T08:28:53.790Z,25.59
2022-08-16T08:30:50.610Z,25.73
2022-08-16T08:31:02.957Z,25.93
2022-08-16T08:31:54.297Z,26.09
2022-08-16T08:32:59.760Z,26.10
2022-08-16T08:33:54.661Z,25.88
2022-08-16T08:34:54.903Z,25.73
2022-08-16T08:35:55.027Z,25.66
2022-08-16T08:36:55.217Z,25.69
2022-08-16T08:37:56.547Z,25.93
2022-08-16T08:38:55.585Z,26.16
2022-08-16T08:39:55.790Z,26.21
2022-08-16T08:40:55.962Z,25.83
2022-08-16T08:41:56.126Z,25.91
2022-08-16T08:42:58.001Z,25.88
2022-08-16T08:43:56.581Z,26.21
2022-08-16T08:44:56.708Z,26.36
2022-08-16T08:45:56.902Z,26.45
2022-08-16T08:47:00.579Z,26.65
2022-08-16T08:47:58.497Z,26.62
2022-08-16T08:48:59.195Z,26.63
2022-08-16T08:49:58.161Z,26.80
2022-08-16T08:50:57.829Z,26.81
2022-08-16T08:51:57.987Z,26.88
2022-08-16T08:52:58.193Z,26.93
2022-08-16T08:53:58.669Z,27.02
2022-08-16T08:54:58.533Z,27.08
2022-08-16T08:55:59.486Z,26.88
2022-08-16T08:56:58.938Z,26.73
2022-08-16T08:57:59.148Z,26.85
2022-08-16T08:59:06.353Z,27.00
2022-08-16T08:59:59.518Z,26.97
2022-08-16T09:01:01.550Z,27.30
2022-08-16T09:01:59.885Z,27.60
2022-08-16T09:03:04.153Z,27.78
2022-08-16T09:04:00.365Z,28.07
2022-08-16T09:05:00.454Z,28.37
2022-08-16T09:06:00.688Z,28.47
2022-08-16T09:07:01.074Z,28.45
2022-08-16T09:08:05.659Z,28.79
2022-08-16T09:09:01.227Z,29.04
2022-08-16T09:10:06.693Z,29.42
2022-08-16T09:11:02.228Z,29.41
2022-08-16T09:12:06.336Z,29.10
2022-08-16T09:13:01.974Z,29.17
2022-08-16T09:14:02.133Z,29.23
2022-08-16T09:15:02.354Z,29.04
2022-08-16T09:16:02.632Z,29.32
2022-08-16T09:17:11.843Z,29.50
2022-08-16T09:18:26.700Z,29.82
2022-08-16T09:19:04.083Z,29.84
2022-08-16T09:20:05.098Z,30.25
2022-08-16T09:21:03.471Z,30.37
2022-08-16T09:22:03.659Z,30.00
2022-08-16T09:23:03.911Z,30.37
2022-08-16T09:24:04.106Z,30.39
2022-08-16T09:25:10.957Z,30.34
2022-08-16T09:26:46.068Z,29.87
2022-08-16T09:27:04.598Z,29.93
2022-08-16T09:28:08.885Z,29.82
2022-08-16T09:29:14.930Z,29.98
2022-08-16T09:30:34.611Z,29.69
2022-08-16T09:31:05.375Z,29.59
2022-08-16T09:32:07.626Z,29.61
2022-08-16T09:33:06.835Z,29.94
2022-08-16T09:34:05.936Z,29.69
2022-08-16T09:35:06.117Z,29.49
2022-08-16T09:36:06.331Z,29.79
2022-08-16T09:37:18.162Z,29.68
2022-08-16T09:38:08.504Z,29.08
2022-08-16T09:39:06.997Z,29.08
2022-08-16T09:40:32.343Z,29.16
2022-08-16T09:41:14.537Z,28.97
2022-08-16T09:42:07.550Z,28.91
2022-08-16T09:43:08.017Z,29.23
2022-08-16T09:45:10.545Z,28.70
2022-08-16T09:45:18.346Z,28.54
2022-08-16T09:46:44.615Z,28.57
2022-08-16T09:47:10.471Z,28.48
2022-08-16T09:48:08.764Z,28.63
2022-08-16T09:49:08.919Z,29.35
2022-08-16T09:50:11.851Z,29.05
2022-08-16T09:51:09.305Z,29.08
2022-08-16T09:52:09.828Z,29.56
2022-08-16T09:53:14.998Z,29.87
2022-08-16T09:54:10.032Z,30.19
2022-08-16T09:55:10.109Z,30.55
2022-08-16T09:56:11.461Z,30.54
2022-08-16T09:57:12.342Z,30.84
2022-08-16T09:58:10.928Z,31.34
2022-08-16T09:59:10.892Z,31.39
2022-08-16T10:00:42.526Z,30.83
2022-08-16T10:01:11.817Z,30.24
2022-08-16T10:02:27.034Z,30.05
2022-08-16T10:03:11.784Z,30.53
2022-08-16T10:04:31.208Z,30.75
2022-08-16T10:05:12.226Z,30.66
2022-08-16T10:06:12.312Z,30.65
2022-08-16T10:07:16.008Z,29.87
2022-08-16T10:08:25.746Z,29.94
2022-08-16T10:09:12.881Z,29.54
2022-08-16T10:10:13.075Z,29.16
2022-08-16T10:11:13.284Z,28.41
2022-08-16T10:12:19.436Z,28.30
2022-08-16T10:13:14.418Z,29.01
2022-08-16T10:14:16.164Z,28.85
2022-08-16T10:15:15.498Z,28.37
2022-08-16T10:17:14.773Z,29.17
2022-08-16T10:19:01.956Z,29.20
2022-08-16T10:19:14.875Z,28.89
2022-08-16T10:20:18.475Z,29.42
2022-08-16T10:21:15.280Z,29.97
2022-08-16T10:22:15.465Z,30.57
2022-08-16T10:23:17.273Z,31.12
2022-08-16T10:24:27.955Z,30.88
2022-08-16T10:27:18.886Z,30.88
2022-08-16T10:27:47.215Z,30.10
2022-08-16T10:27:56.885Z,29.78
2022-08-16T10:28:42.040Z,29.08
2022-08-16T10:29:59.175Z,29.02
2022-08-16T10:30:41.732Z,29.65
2022-08-16T10:31:44.131Z,30.24
2022-08-16T10:32:42.123Z,30.57
2022-08-16T10:33:42.335Z,30.88
2022-08-16T10:34:42.523Z,30.53
2022-08-16T10:35:46.817Z,29.31
2022-08-16T10:36:42.973Z,28.72
2022-08-16T10:37:43.204Z,28.51
2022-08-16T10:38:43.352Z,28.69
2022-08-16T10:39:43.558Z,29.14
2022-08-16T10:40:45.523Z,29.94
2022-08-16T10:41:43.944Z,29.97
2022-08-16T10:42:44.207Z,29.53
2022-08-16T10:43:44.355Z,29.84
2022-08-16T10:44:53.480Z,29.42
2022-08-16T10:45:44.787Z,29.14
2022-08-16T10:46:45.065Z,28.30
2022-08-16T10:47:45.192Z,28.27
2022-08-16T10:48:47.021Z,28.49
2022-08-16T10:49:45.625Z,28.19
2022-08-16T10:50:45.840Z,28.17
2022-08-16T10:52:03.272Z,28.96
2022-08-16T10:52:46.256Z,29.42
2022-08-16T10:53:46.440Z,29.91
2022-08-16T10:55:47.643Z,29.39
2022-08-16T10:56:55.511Z,28.89
2022-08-16T10:57:47.286Z,28.76
2022-08-16T10:58:47.413Z,28.64
2022-08-16T10:59:54.468Z,28.48
2022-08-16T11:00:47.834Z,28.51
2022-08-16T11:02:58.529Z,28.02
2022-08-16T11:03:48.746Z,27.82
2022-08-16T11:06:06.109Z,27.75
2022-08-16T11:07:06.670Z,27.70
2022-08-16T11:07:52.198Z,27.67
2022-08-16T11:09:21.081Z,27.71
2022-08-16T11:09:49.603Z,27.55
2022-08-16T11:11:12.893Z,27.58
2022-08-16T11:12:50.215Z,27.82
2022-08-16T11:13:59.296Z,27.86
2022-08-16T11:15:55.487Z,27.75
2022-08-16T11:17:10.622Z,27.95
2022-08-16T11:18:48.791Z,27.93
2022-08-16T11:19:12.210Z,27.86
2022-08-16T11:20:51.783Z,28.48
2022-08-16T11:22:52.189Z,28.89
2022-08-16T11:23:57.788Z,29.44
2022-08-16T11:26:07.517Z,30.39
2022-08-16T11:27:53.160Z,31.09
2022-08-16T11:29:54.841Z,29.81
2022-08-16T11:30:57.414Z,29.53
2022-08-16T11:31:54.561Z,29.17
2022-08-16T11:32:54.166Z,28.93
2022-08-16T11:33:54.975Z,28.57
2022-08-16T11:35:10.578Z,27.64
2022-08-16T11:37:01.045Z,26.97
2022-08-16T11:38:46.775Z,26.71
2022-08-16T11:39:00.529Z,26.34
2022-08-16T11:39:59.809Z,25.60
2022-08-16T11:40:55.787Z,24.98
2022-08-16T11:41:56.002Z,24.55
2022-08-16T11:42:56.174Z,24.47
2022-08-16T11:43:56.378Z,24.39
2022-08-16T11:44:56.934Z,24.35
2022-08-16T11:45:56.873Z,24.53
2022-08-16T11:46:56.979Z,24.69
2022-08-16T11:47:57.163Z,25.13
2022-08-16T11:48:57.374Z,25.40
2022-08-16T11:49:57.602Z,25.14
2022-08-16T11:50:57.753Z,25.59
2022-08-16T11:51:57.967Z,26.18
2022-08-16T11:52:58.161Z,26.84
2022-08-16T11:53:58.360Z,27.36
2022-08-16T11:55:00.135Z,27.87
2022-08-16T11:55:58.746Z,27.59
2022-08-16T11:56:58.908Z,27.26
2022-08-16T11:57:59.112Z,27.05
2022-08-16T11:58:59.327Z,27.21
2022-08-16T11:59:59.555Z,27.64
2022-08-16T12:00:59.787Z,27.55
2022-08-16T12:02:30.677Z,27.42
2022-08-16T12:03:00.175Z,27.14
2022-08-16T12:04:00.393Z,27.10
2022-08-16T12:05:01.089Z,26.92
2022-08-16T12:06:00.713Z,26.83
2022-08-16T12:07:00.900Z,26.73
2022-08-16T12:08:05.217Z,26.48
2022-08-16T12:09:02.119Z,26.38
2022-08-16T12:10:01.554Z,26.29
2022-08-16T12:11:02.533Z,26.18
2022-08-16T12:12:02.721Z,25.96
2022-08-16T12:13:02.798Z,25.75
2022-08-16T12:14:04.331Z,25.73
2022-08-16T12:15:02.481Z,25.55
2022-08-16T12:16:02.634Z,25.48
2022-08-16T12:17:02.837Z,25.63
2022-08-16T12:18:02.994Z,25.72
2022-08-16T12:19:03.193Z,25.87
2022-08-16T12:20:04.825Z,25.88
2022-08-16T12:21:03.881Z,25.99
2022-08-16T12:22:05.528Z,26.05
2022-08-16T12:23:03.951Z,25.95
2022-08-16T12:24:04.147Z,25.99
2022-08-16T12:25:04.373Z,26.07
2022-08-16T12:26:10.395Z,26.43
2022-08-16T12:27:04.756Z,26.88
2022-08-16T12:28:04.943Z,27.22
2022-08-16T12:29:05.142Z,27.44
2022-08-16T12:30:05.357Z,27.42
2022-08-16T12:31:05.543Z,27.64
2022-08-16T12:32:35.977Z,27.82
2022-08-16T12:33:06.671Z,27.89
2022-08-16T12:34:06.133Z,27.85
2022-08-16T12:35:06.345Z,27.83
2022-08-16T12:36:13.068Z,27.74
2022-08-16T12:37:11.551Z,27.90
2022-08-16T12:38:38.268Z,27.96
2022-08-16T12:39:07.135Z,28.01
2022-08-16T12:40:07.354Z,28.20
2022-08-16T12:41:08.119Z,28.98
2022-08-16T12:42:07.695Z,28.76
2022-08-16T12:43:07.900Z,28.79
2022-08-16T12:44:08.109Z,28.89
2022-08-16T12:45:08.301Z,28.85
2022-08-16T12:46:08.715Z,28.64
2022-08-16T12:47:08.651Z,28.67
2022-08-16T12:48:32.677Z,28.60
2022-08-16T12:49:09.049Z,28.51
2022-08-16T12:50:10.556Z,28.44
2022-08-16T12:51:13.575Z,28.38
2022-08-16T12:52:09.634Z,28.29
2022-08-16T12:53:09.846Z,28.35
2022-08-16T12:54:10.024Z,28.48
2022-08-16T12:55:10.260Z,28.54
2022-08-16T12:56:10.453Z,28.66
2022-08-16T12:57:14.107Z,28.75
2022-08-16T12:58:14.078Z,28.74
2022-08-16T12:59:11.371Z,28.81
2022-08-16T13:00:11.311Z,28.72
2022-08-16T13:01:11.494Z,29.02
2022-08-16T13:02:12.618Z,29.22
2022-08-16T13:03:11.849Z,29.35
2022-08-16T13:04:20.837Z,29.65
2022-08-16T13:05:12.277Z,29.88
2022-08-16T13:06:12.712Z,30.23
2022-08-16T13:07:12.655Z,30.54
2022-08-16T13:08:19.787Z,31.10